Time;durP1;ratioP1;P1;durP2;ratioP2;P2;SDS_P1;SDS_P2;PMS_P1;PMS_P2;Temp;Humidity;BMP_temperature;BMP_pressure;BME280_temperature;BME280_humidity;BME280_pressure;Samples;Min_cycle;Max_cycle;Signal;HPM_P1;HPM_P2
2023/05/13 00:00:35;;;;;;;11.67;10.47;;;17.10;99.90;;;;;;4915241;29;20458;-83
2023/05/13 00:03:21;;;;;;;11.70;10.40;;;17.10;99.90;;;;;;4919150;29;20486;-83
2023/05/13 00:06:09;;;;;;;10.30;9.03;;;17.00;99.90;;;;;;4922599;29;21146;-82
2023/05/13 00:08:46;;;;;;;11.53;10.23;;;17.00;99.90;;;;;;4921984;29;20462;-82
2023/05/13 00:11:25;;;;;;;10.67;9.67;;;16.90;99.90;;;;;;4918901;29;20462;-83
2023/05/13 00:14:08;;;;;;;10.40;8.50;;;17.00;99.90;;;;;;4921471;29;20502;-84
2023/05/13 00:16:35;;;;;;;11.50;8.60;;;17.00;99.90;;;;;;4936900;29;20465;-85
2023/05/13 00:19:07;;;;;;;9.70;8.40;;;17.00;99.90;;;;;;4924532;29;20530;-82
2023/05/13 00:21:40;;;;;;;11.13;8.90;;;16.90;99.90;;;;;;4922311;29;20475;-82
2023/05/13 00:24:10;;;;;;;10.30;8.60;;;16.90;99.90;;;;;;4926948;29;20466;-81
2023/05/13 00:26:40;;;;;;;9.00;8.13;;;16.90;99.90;;;;;;4928536;29;20485;-83
2023/05/13 00:29:19;;;;;;;8.40;7.60;;;16.90;99.90;;;;;;4923074;29;20506;-82
2023/05/13 00:31:57;;;;;;;9.40;7.40;;;16.90;99.90;;;;;;4929301;29;20875;-83
2023/05/13 00:34:32;;;;;;;8.47;7.60;;;16.90;99.90;;;;;;4918237;29;20521;-83
2023/05/13 00:37:05;;;;;;;8.17;7.37;;;16.80;99.90;;;;;;4916602;29;20875;-82
2023/05/13 00:39:37;;;;;;;10.53;8.60;;;16.80;99.90;;;;;;4919140;29;20518;-85
2023/05/13 00:42:18;;;;;;;8.50;7.70;;;16.70;99.90;;;;;;4925576;29;20558;-82
2023/05/13 00:44:51;;;;;;;9.73;8.70;;;16.70;99.90;;;;;;4923698;29;20548;-82
2023/05/13 00:47:20;;;;;;;9.10;8.30;;;16.60;99.90;;;;;;4921731;29;20470;-82
2023/05/13 00:49:56;;;;;;;11.00;9.20;;;16.60;99.90;;;;;;4921891;29;20454;-84
2023/05/13 00:52:30;;;;;;;8.90;8.00;;;16.60;99.90;;;;;;4922754;29;20482;-84
2023/05/13 00:55:03;;;;;;;8.73;7.67;;;16.60;99.90;;;;;;4922294;29;20515;-82
2023/05/13 00:57:35;;;;;;;8.97;8.10;;;16.60;99.90;;;;;;4928075;29;20545;-84
2023/05/13 01:00:09;;;;;;;8.77;7.90;;;16.80;99.90;;;;;;4919678;29;20546;-83
2023/05/13 01:02:43;;;;;;;9.17;8.33;;;16.80;99.90;;;;;;4942725;29;20550;-83
2023/05/13 01:05:23;;;;;;;10.70;9.27;;;16.80;99.90;;;;;;4915012;29;20478;-84
2023/05/13 01:08:19;;;;;;;9.10;7.77;;;16.70;99.90;;;;;;4936485;29;20998;-82
2023/05/13 01:10:54;;;;;;;11.33;7.70;;;16.60;99.90;;;;;;4923861;29;20503;-85
2023/05/13 01:13:36;;;;;;;9.23;8.20;;;16.60;99.90;;;;;;4920720;29;20515;-85
2023/05/13 01:16:40;;;;;;;9.10;8.30;;;16.50;99.90;;;;;;4927462;29;20488;-84
2023/05/13 01:19:32;;;;;;;10.70;8.43;;;16.50;99.90;;;;;;4917193;29;20978;-82
2023/05/13 01:22:03;;;;;;;8.80;7.90;;;16.40;99.90;;;;;;4921200;29;20482;-84
2023/05/13 01:24:33;;;;;;;10.47;8.67;;;16.30;99.90;;;;;;4928178;29;20496;-84
2023/05/13 01:27:02;;;;;;;12.53;8.40;;;16.20;99.90;;;;;;4929094;29;20470;-84
2023/05/13 01:29:37;;;;;;;10.50;8.33;;;16.20;99.90;;;;;;4932644;29;20470;-84
2023/05/13 01:32:08;;;;;;;9.27;8.37;;;16.20;99.90;;;;;;4928072;29;20470;-83
2023/05/13 01:34:45;;;;;;;9.77;8.63;;;16.10;99.90;;;;;;4933938;29;20507;-84
2023/05/13 01:37:13;;;;;;;9.30;8.40;;;16.20;99.90;;;;;;4935744;29;20450;-83
2023/05/13 01:39:51;;;;;;;8.70;7.90;;;16.20;99.90;;;;;;4930680;29;20461;-83
2023/05/13 01:42:23;;;;;;;9.50;8.03;;;16.10;99.90;;;;;;4926380;29;20482;-84
2023/05/13 01:44:56;;;;;;;9.20;8.30;;;16.10;99.90;;;;;;4947929;29;20964;-84
2023/05/13 01:47:28;;;;;;;9.00;8.13;;;16.10;99.90;;;;;;4939399;29;20491;-85
2023/05/13 01:49:55;;;;;;;9.03;8.23;;;16.20;99.90;;;;;;4939027;29;20450;-85
2023/05/13 01:52:36;;;;;;;11.00;8.70;;;16.20;99.90;;;;;;4940755;29;20474;-84
2023/05/13 01:55:17;;;;;;;9.17;8.27;;;16.10;99.90;;;;;;4935108;29;20476;-85
2023/05/13 01:58:05;;;;;;;9.77;8.20;;;16.00;99.90;;;;;;4937317;29;20439;-86
2023/05/13 02:00:47;;;;;;;9.77;8.07;;;16.00;99.90;;;;;;4924283;29;20526;-83
2023/05/13 02:03:19;;;;;;;9.27;8.37;;;15.90;99.90;;;;;;4935945;29;20530;-83
2023/05/13 02:05:54;;;;;;;9.63;8.30;;;15.90;99.90;;;;;;4923138;29;20457;-83
2023/05/13 02:08:30;;;;;;;9.60;8.60;;;15.90;99.90;;;;;;4929583;29;20458;-83
2023/05/13 02:11:21;;;;;;;9.73;8.73;;;15.80;99.90;;;;;;4929023;29;20470;-83
2023/05/13 02:14:01;;;;;;;8.33;7.57;;;15.80;99.90;;;;;;4923073;29;20557;-84
2023/05/13 02:16:35;;;;;;;8.90;8.00;;;15.80;99.90;;;;;;4922654;29;20474;-83
2023/05/13 02:19:08;;;;;;;10.37;8.40;;;15.80;99.90;;;;;;4926244;29;20462;-83
2023/05/13 02:21:50;;;;;;;8.87;8.10;;;15.80;99.90;;;;;;4923939;29;20509;-84
2023/05/13 02:24:33;;;;;;;8.60;7.57;;;16.00;99.90;;;;;;4920285;29;20455;-83
2023/05/13 02:27:11;;;;;;;9.03;7.70;;;16.30;99.90;;;;;;4923404;29;20529;-84
2023/05/13 02:29:56;;;;;;;9.17;7.50;;;16.10;99.90;;;;;;4924103;29;20457;-82
2023/05/13 02:32:45;;;;;;;8.63;7.77;;;16.10;99.90;;;;;;4922187;29;20478;-84
2023/05/13 02:35:31;;;;;;;7.77;7.03;;;15.90;99.90;;;;;;4919053;29;20670;-82
2023/05/13 02:38:10;;;;;;;8.93;7.83;;;15.80;99.90;;;;;;4921888;29;20462;-83
2023/05/13 02:40:43;;;;;;;10.97;7.97;;;15.80;99.90;;;;;;4933955;29;20461;-85
2023/05/13 02:43:21;;;;;;;9.63;7.73;;;15.80;99.90;;;;;;4918286;29;20475;-82
2023/05/13 02:46:11;;;;;;;10.20;8.57;;;15.80;99.90;;;;;;4932478;29;20838;-82
2023/05/13 02:48:51;;;;;;;9.47;8.57;;;15.90;99.90;;;;;;4924859;29;20464;-83
2023/05/13 02:51:35;;;;;;;10.70;9.53;;;15.90;99.90;;;;;;4924762;29;20450;-83
2023/05/13 02:54:06;;;;;;;12.43;9.10;;;15.70;99.90;;;;;;4923913;29;20553;-84
2023/05/13 02:56:38;;;;;;;9.23;8.30;;;15.70;99.90;;;;;;4937632;29;20502;-84
2023/05/13 02:59:11;;;;;;;10.20;8.27;;;15.70;99.90;;;;;;4920485;29;20439;-84
2023/05/13 03:01:45;;;;;;;11.57;8.33;;;15.70;99.90;;;;;;4937320;29;20491;-83
2023/05/13 03:04:35;;;;;;;9.00;8.20;;;15.60;99.90;;;;;;4927571;29;20454;-84
2023/05/13 03:07:11;;;;;;;9.27;8.20;;;15.70;99.90;;;;;;4925148;29;20450;-84
2023/05/13 03:09:54;;;;;;;10.20;8.50;;;15.60;99.90;;;;;;4924491;29;21206;-84
2023/05/13 03:12:39;;;;;;;11.20;9.10;;;15.60;99.90;;;;;;4927019;29;20605;-83
2023/05/13 03:15:16;;;;;;;10.50;9.40;;;15.50;99.90;;;;;;4938316;29;20537;-84
2023/05/13 03:17:46;;;;;;;11.87;8.83;;;15.50;99.90;;;;;;4924633;29;20447;-84
2023/05/13 03:20:23;;;;;;;10.03;8.90;;;15.50;99.90;;;;;;4942233;29;20945;-82
2023/05/13 03:22:57;;;;;;;9.60;8.60;;;15.50;99.90;;;;;;4919774;29;21159;-82
2023/05/13 03:25:32;;;;;;;9.53;8.60;;;15.50;99.90;;;;;;4918689;29;20455;-83
2023/05/13 03:27:59;;;;;;;11.50;9.30;;;15.60;99.90;;;;;;4926514;29;20659;-83
2023/05/13 03:30:29;;;;;;;9.47;8.50;;;15.60;99.90;;;;;;4924419;29;20451;-84
2023/05/13 03:33:00;;;;;;;10.67;9.03;;;15.70;99.90;;;;;;4926969;29;20518;-83
2023/05/13 03:35:39;;;;;;;9.40;8.50;;;15.70;99.90;;;;;;4942347;29;20913;-82
2023/05/13 03:38:22;;;;;;;;;;;;;;;;;;;;;
2023/05/13 03:41:03;;;;;;;10.20;8.57;;;15.50;99.90;;;;;;4927221;29;20458;-85
2023/05/13 03:43:48;;;;;;;13.07;9.73;;;15.50;99.90;;;;;;4921788;29;20478;-85
2023/05/13 03:46:26;;;;;;;8.63;7.73;;;15.70;99.90;;;;;;4933265;29;20467;-83
2023/05/13 03:49:12;;;;;;;8.83;7.90;;;15.90;99.90;;;;;;4924569;29;21015;-83
2023/05/13 03:51:48;;;;;;;7.10;6.43;;;15.60;99.90;;;;;;4920109;29;20521;-83
2023/05/13 03:54:26;;;;;;;7.17;6.40;;;15.30;99.90;;;;;;4922949;29;20554;-84
2023/05/13 03:57:02;;;;;;;6.33;5.73;;;15.10;99.90;;;;;;4927525;29;20574;-82
2023/05/13 03:59:39;;;;;;;6.80;6.20;;;15.00;99.90;;;;;;4920539;29;20502;-83
2023/05/13 04:02:09;;;;;;;7.57;6.10;;;14.90;99.90;;;;;;4921840;29;20489;-83
2023/05/13 04:04:41;;;;;;;7.10;6.00;;;14.80;99.90;;;;;;4921711;29;20459;-84
2023/05/13 04:07:11;;;;;;;6.70;6.10;;;14.90;99.90;;;;;;4921786;29;20466;-83
2023/05/13 04:09:42;;;;;;;7.27;6.50;;;14.80;99.90;;;;;;4921381;29;20471;-83
2023/05/13 04:12:39;;;;;;;7.37;5.97;;;14.80;99.90;;;;;;4924297;29;20514;-85
2023/05/13 04:15:07;;;;;;;10.80;7.10;;;14.90;99.90;;;;;;4932277;29;20554;-84
2023/05/13 04:17:39;;;;;;;8.13;7.00;;;15.10;99.90;;;;;;4943275;29;21106;-84
2023/05/13 04:20:21;;;;;;;7.37;6.67;;;15.00;99.90;;;;;;4924534;29;20466;-85
2023/05/13 04:22:59;;;;;;;7.37;6.67;;;15.00;99.90;;;;;;4927271;29;20486;-84
2023/05/13 04:25:32;;;;;;;6.40;5.80;;;14.90;99.90;;;;;;4923210;29;20526;-83
2023/05/13 04:28:07;;;;;;;7.47;6.50;;;14.90;99.90;;;;;;4925577;29;20466;-84
2023/05/13 04:30:38;;;;;;;8.23;7.37;;;14.90;99.90;;;;;;4920084;29;20454;-83
2023/05/13 04:33:07;;;;;;;7.57;6.40;;;15.00;99.90;;;;;;4914064;29;20486;-83
2023/05/13 04:35:45;;;;;;;6.70;6.10;;;15.10;99.90;;;;;;4915480;29;20499;-84
2023/05/13 04:38:37;;;;;;;;;;;;;;;;;;;;;
2023/05/13 04:41:18;;;;;;;6.93;6.23;;;15.30;99.90;;;;;;4925422;29;20470;-83
2023/05/13 04:43:57;;;;;;;6.20;5.60;;;15.30;99.90;;;;;;4937631;29;20530;-82
2023/05/13 04:46:30;;;;;;;8.10;6.40;;;15.20;99.90;;;;;;4937845;28;20443;-84
2023/05/13 04:49:07;;;;;;;7.80;6.03;;;15.10;99.90;;;;;;4938374;28;21637;-83
2023/05/13 04:51:37;;;;;;;8.03;7.03;;;15.10;99.90;;;;;;4940309;28;20541;-84
2023/05/13 04:54:13;;;;;;;8.43;7.53;;;15.00;99.90;;;;;;4929700;29;21002;-83
2023/05/13 04:57:05;;;;;;;;;;;;;;;;;;;;;
2023/05/13 04:59:38;;;;;;;11.10;9.50;;;15.00;99.90;;;;;;4918938;29;20492;-84
2023/05/13 05:02:19;;;;;;;11.50;9.77;;;15.10;99.90;;;;;;4917485;29;20497;-83
2023/05/13 05:04:51;;;;;;;12.90;11.40;;;15.30;99.90;;;;;;4918354;29;20534;-85
2023/05/13 05:07:27;;;;;;;11.20;10.00;;;15.50;99.90;;;;;;4923582;29;20501;-83
2023/05/13 05:10:04;;;;;;;12.13;10.83;;;15.60;99.90;;;;;;4922139;29;20501;-83
2023/05/13 05:12:51;;;;;;;11.80;10.17;;;15.50;99.90;;;;;;4932681;28;20477;-82
2023/05/13 05:15:35;;;;;;;11.90;10.70;;;15.70;99.90;;;;;;4912321;29;20494;-83
2023/05/13 05:18:09;;;;;;;12.73;11.37;;;15.60;99.90;;;;;;4916965;29;20489;-83
2023/05/13 05:20:42;;;;;;;12.00;10.67;;;15.90;99.90;;;;;;4918678;29;20470;-83
2023/05/13 05:23:19;;;;;;;13.40;11.80;;;15.80;99.90;;;;;;4918720;29;20478;-85
2023/05/13 05:25:49;;;;;;;16.57;11.27;;;16.00;99.90;;;;;;4924353;29;20553;-83
2023/05/13 05:28:32;;;;;;;14.73;12.00;;;15.90;99.90;;;;;;4915764;29;20463;-83
2023/05/13 05:31:10;;;;;;;10.70;9.70;;;15.80;99.90;;;;;;4916998;29;20457;-84
2023/05/13 05:33:55;;;;;;;9.50;8.33;;;15.70;99.90;;;;;;4932322;29;20459;-84
2023/05/13 05:36:42;;;;;;;10.53;8.10;;;15.50;99.90;;;;;;4923491;29;20487;-84
2023/05/13 05:39:17;;;;;;;12.53;9.17;;;15.80;99.90;;;;;;4934152;29;20509;-85
2023/05/13 05:41:54;;;;;;;9.37;8.53;;;15.90;99.90;;;;;;4931128;29;20494;-85
2023/05/13 05:44:21;;;;;;;9.87;8.63;;;15.80;99.90;;;;;;4923452;29;20510;-84
2023/05/13 05:46:51;;;;;;;9.83;8.83;;;15.70;99.90;;;;;;4923086;29;20518;-85
2023/05/13 05:49:21;;;;;;;8.83;7.93;;;15.80;99.90;;;;;;4919560;29;20557;-84
2023/05/13 05:51:57;;;;;;;11.70;8.07;;;15.60;99.90;;;;;;4919898;29;20915;-83
2023/05/13 05:54:30;;;;;;;10.83;8.27;;;15.80;99.90;;;;;;4926393;29;20564;-82
2023/05/13 05:57:02;;;;;;;11.93;8.37;;;16.00;99.90;;;;;;4935067;29;20486;-83
2023/05/13 05:59:32;;;;;;;8.93;8.03;;;16.10;99.90;;;;;;4921474;29;20539;-84
2023/05/13 06:02:09;;;;;;;8.70;7.77;;;16.10;99.90;;;;;;4920040;29;21368;-84
2023/05/13 06:04:43;;;;;;;8.60;7.80;;;15.90;99.90;;;;;;4922559;29;20485;-85
2023/05/13 06:07:17;;;;;;;7.87;7.10;;;15.90;99.90;;;;;;4924553;29;20466;-84
2023/05/13 06:09:46;;;;;;;8.80;7.43;;;16.10;99.90;;;;;;4940703;29;20474;-83
2023/05/13 06:12:18;;;;;;;9.10;8.20;;;16.20;99.90;;;;;;4928367;29;20482;-83
2023/05/13 06:14:55;;;;;;;9.17;7.47;;;16.30;99.90;;;;;;4928116;29;20465;-83
2023/05/13 06:17:22;;;;;;;8.03;7.27;;;16.10;99.90;;;;;;4942697;29;20506;-82
2023/05/13 06:19:55;;;;;;;7.67;6.97;;;16.00;99.90;;;;;;4926171;29;20462;-83
2023/05/13 06:22:29;;;;;;;9.70;8.07;;;16.40;99.90;;;;;;4924666;29;20483;-83
2023/05/13 06:25:03;;;;;;;9.20;7.90;;;16.60;99.90;;;;;;4924150;29;20469;-83
2023/05/13 06:27:36;;;;;;;8.80;7.60;;;16.70;99.90;;;;;;4924300;29;20494;-84
2023/05/13 06:30:22;;;;;;;8.00;7.20;;;16.60;99.90;;;;;;4925374;29;20466;-85
2023/05/13 06:33:01;;;;;;;7.83;7.03;;;16.60;99.90;;;;;;4941820;29;20834;-84
2023/05/13 06:35:36;;;;;;;8.87;7.97;;;16.70;99.90;;;;;;4923248;29;20487;-84
2023/05/13 06:38:09;;;;;;;8.57;7.67;;;16.80;99.90;;;;;;4921401;29;21109;-83
2023/05/13 06:40:46;;;;;;;8.47;7.63;;;17.10;99.90;;;;;;4923762;29;20550;-82
2023/05/13 06:43:19;;;;;;;10.03;7.50;;;17.30;99.90;;;;;;4927696;29;20477;-83
2023/05/13 06:45:52;;;;;;;9.43;8.53;;;17.10;99.90;;;;;;4921704;29;20463;-84
2023/05/13 06:48:21;;;;;;;7.47;6.77;;;17.10;99.90;;;;;;4925312;29;20546;-84
2023/05/13 06:50:55;;;;;;;7.83;7.13;;;17.30;99.90;;;;;;4926834;29;20473;-84
2023/05/13 06:53:41;;;;;;;9.33;8.33;;;17.40;99.90;;;;;;4942000;29;20478;-84
2023/05/13 06:56:17;;;;;;;8.57;7.70;;;17.40;99.90;;;;;;4925308;29;20486;-84
2023/05/13 06:58:46;;;;;;;8.50;6.93;;;17.40;99.50;;;;;;4937096;29;21157;-84
2023/05/13 07:01:22;;;;;;;7.73;6.90;;;17.50;99.20;;;;;;4925943;29;20462;-84
2023/05/13 07:04:01;;;;;;;7.43;6.73;;;17.50;98.20;;;;;;4923529;29;20527;-83
2023/05/13 07:06:38;;;;;;;7.83;7.10;;;17.60;98.40;;;;;;4921646;29;20466;-83
2023/05/13 07:09:08;;;;;;;7.63;6.83;;;17.50;98.60;;;;;;4930207;29;20494;-83
2023/05/13 07:12:01;;;;;;;7.10;6.50;;;17.40;99.30;;;;;;4927037;29;20481;-83
2023/05/13 07:14:40;;;;;;;8.03;7.33;;;17.50;99.30;;;;;;4928326;29;20465;-82
2023/05/13 07:17:14;;;;;;;8.50;7.10;;;17.70;99.20;;;;;;4933712;29;20477;-83
2023/05/13 07:19:57;;;;;;;7.17;6.47;;;17.60;98.90;;;;;;4930932;29;20458;-83
2023/05/13 07:22:43;;;;;;;9.20;7.30;;;17.90;98.70;;;;;;4932468;29;20474;-83
2023/05/13 07:25:31;;;;;;;7.60;6.73;;;17.70;98.40;;;;;;4930989;29;20473;-83
2023/05/13 07:28:09;;;;;;;7.20;6.53;;;17.90;98.80;;;;;;4924843;29;20502;-84
2023/05/13 07:30:55;;;;;;;7.13;6.37;;;18.10;98.10;;;;;;4923049;29;20470;-83
2023/05/13 07:33:35;;;;;;;8.07;7.30;;;18.30;97.40;;;;;;4923236;29;20489;-84
2023/05/13 07:39:38;;;;;;;6.60;5.93;;;18.60;96.20;;;;;;4924719;29;20459;-84
2023/05/13 07:45:31;;;;;;;6.30;5.70;;;18.90;93.40;;;;;;4923666;29;20460;-85
2023/05/13 07:48:33;;;;;;;7.20;6.50;;;19.30;93.40;;;;;;4939388;29;20430;-84
2023/05/13 07:51:12;;;;;;;6.60;6.00;;;19.50;92.70;;;;;;4930746;29;20471;-85
2023/05/13 07:57:10;;;;;;;11.20;8.13;;;19.30;92.80;;;;;;4927230;29;20536;-83
2023/05/13 07:59:52;;;;;;;6.63;6.03;;;19.40;92.50;;;;;;4940508;28;20769;-83
2023/05/13 08:02:36;;;;;;;;;;;;;;;;;;;;;
2023/05/13 08:05:25;;;;;;;6.33;5.73;;;19.40;92.70;;;;;;4936992;29;20474;-83
2023/05/13 08:08:35;;;;;;;6.37;5.57;;;19.50;92.20;;;;;;4935692;28;20465;-82
2023/05/13 08:11:53;;;;;;;9.20;5.57;;;19.20;92.30;;;;;;4942075;28;20686;-83
2023/05/13 08:15:16;;;;;;;5.70;5.20;;;19.50;91.50;;;;;;4941901;28;20430;-84
2023/05/13 08:18:31;;;;;;;5.67;5.17;;;20.00;91.80;;;;;;4932295;29;21573;-84
2023/05/13 08:21:51;;;;;;;5.90;5.30;;;23.30;87.50;;;;;;4921284;29;20466;-84
2023/05/13 08:24:29;;;;;;;6.10;5.10;;;24.50;74.10;;;;;;4922288;29;20457;-84
2023/05/13 08:27:45;;;;;;;5.83;5.33;;;23.50;75.60;;;;;;4928369;29;20463;-83
2023/05/13 08:31:05;;;;;;;6.10;5.50;;;23.90;74.70;;;;;;4889573;29;20464;-84
2023/05/13 08:33:59;;;;;;;6.43;5.80;;;25.00;70.60;;;;;;4919283;29;20535;-83
2023/05/13 08:37:26;;;;;;;6.43;5.77;;;24.40;70.20;;;;;;4924536;29;20506;-83
2023/05/13 08:40:37;;;;;;;7.00;6.30;;;23.60;71.10;;;;;;4920656;29;20726;-83
2023/05/13 08:43:47;;;;;;;8.03;6.17;;;24.10;70.90;;;;;;4918470;29;20467;-83
2023/05/13 08:46:54;;;;;;;7.03;6.33;;;26.60;65.00;;;;;;4920936;29;20534;-84
2023/05/13 08:50:04;;;;;;;;;;;;;;;;;;;;;
2023/05/13 08:56:42;;;;;;;;;;;;;;;;;;;;;
2023/05/13 08:59:54;;;;;;;6.07;5.47;;;30.30;48.70;;;;;;4845540;29;20459;-85
2023/05/13 09:02:56;;;;;;;8.10;7.30;;;30.20;48.80;;;;;;4826711;29;20482;-84
2023/05/13 09:05:59;;;;;;;5.97;5.40;;;30.70;47.70;;;;;;4830723;29;20525;-84
2023/05/13 09:09:28;;;;;;;6.03;5.00;;;30.50;46.90;;;;;;4821527;29;20545;-85
2023/05/13 09:12:46;;;;;;;5.87;5.37;;;31.00;45.80;;;;;;4821529;29;20497;-85
2023/05/13 09:15:42;;;;;;;5.07;4.57;;;30.50;44.30;;;;;;4805108;29;20453;-84
2023/05/13 09:19:30;;;;;;;5.40;4.90;;;31.20;43.10;;;;;;4833240;29;20451;-84
2023/05/13 09:22:39;;;;;;;5.43;5.03;;;31.70;42.10;;;;;;4821134;29;20490;-84
2023/05/13 09:25:30;;;;;;;4.63;4.30;;;31.80;39.80;;;;;;4836734;29;20501;-83
2023/05/13 09:28:06;;;;;;;5.23;4.30;;;31.00;41.10;;;;;;4844179;29;20553;-84
2023/05/13 09:30:41;;;;;;;4.23;3.83;;;31.70;40.90;;;;;;4830163;29;20573;-83
2023/05/13 09:33:14;;;;;;;9.27;8.30;;;31.80;40.40;;;;;;4877097;29;20490;-82
2023/05/13 09:35:44;;;;;;;5.17;4.67;;;31.60;40.00;;;;;;4923731;29;20462;-84
2023/05/13 09:38:18;;;;;;;5.10;4.70;;;32.10;39.60;;;;;;4929873;29;20478;-85
2023/05/13 09:40:58;;;;;;;4.17;3.87;;;31.70;39.10;;;;;;4920628;29;20667;-85
2023/05/13 09:43:31;;;;;;;4.63;4.23;;;32.40;38.20;;;;;;4918828;29;20494;-83
2023/05/13 09:46:04;;;;;;;4.63;4.23;;;32.20;37.90;;;;;;4924899;29;20482;-83
2023/05/13 09:48:36;;;;;;;4.90;4.50;;;32.10;38.90;;;;;;4929609;29;20454;-83
2023/05/13 09:51:06;;;;;;;4.33;4.03;;;32.70;37.10;;;;;;4926230;29;20466;-85
2023/05/13 09:53:33;;;;;;;4.67;4.27;;;32.70;37.00;;;;;;4926441;29;20585;-84
2023/05/13 09:56:00;;;;;;;4.37;4.07;;;31.20;38.10;;;;;;4925810;29;20462;-83
2023/05/13 09:58:29;;;;;;;4.13;3.83;;;30.40;38.80;;;;;;4926310;29;20493;-82
2023/05/13 10:01:00;;;;;;;4.17;3.87;;;30.50;39.50;;;;;;4923601;29;20443;-83
2023/05/13 10:03:28;;;;;;;3.97;3.67;;;30.90;39.30;;;;;;4930108;29;20501;-83
2023/05/13 10:05:59;;;;;;;4.60;4.23;;;31.40;38.30;;;;;;4928361;29;20517;-84
2023/05/13 10:08:29;;;;;;;4.00;3.70;;;31.00;39.30;;;;;;4935623;29;20455;-83
2023/05/13 10:10:57;;;;;;;3.60;3.40;;;30.40;40.60;;;;;;4937589;28;20513;-85
2023/05/13 10:13:26;;;;;;;4.07;3.80;;;30.00;41.20;;;;;;4958067;28;20488;-84
2023/05/13 10:16:00;;;;;;;4.10;3.80;;;29.40;41.10;;;;;;4941474;29;20490;-84
2023/05/13 10:18:30;;;;;;;4.40;4.10;;;28.80;42.60;;;;;;4941453;28;20513;-83
2023/05/13 10:20:57;;;;;;;4.60;4.20;;;28.10;43.60;;;;;;4941823;28;20567;-85
2023/05/13 10:23:26;;;;;;;5.10;4.60;;;27.20;45.30;;;;;;4943950;28;21107;-84
2023/05/13 10:25:55;;;;;;;5.77;4.40;;;26.70;46.20;;;;;;4923785;29;20506;-83
2023/05/13 10:28:23;;;;;;;4.37;4.07;;;26.50;47.70;;;;;;4923141;29;21055;-83
2023/05/13 10:30:51;;;;;;;6.73;4.77;;;27.30;47.20;;;;;;4913212;29;20463;-85
2023/05/13 10:33:19;;;;;;;5.57;5.03;;;27.60;47.30;;;;;;4918170;29;20520;-82
2023/05/13 10:36:10;;;;;;;4.60;4.30;;;27.50;47.70;;;;;;4919234;29;20561;-83
2023/05/13 10:39:12;;;;;;;5.50;5.00;;;26.80;48.50;;;;;;4942295;29;21227;-82
2023/05/13 10:41:51;;;;;;;6.60;6.00;;;26.80;49.50;;;;;;4926362;29;20497;-82
2023/05/13 10:44:22;;;;;;;5.70;5.13;;;26.50;49.50;;;;;;4921997;29;20454;-84
2023/05/13 10:46:49;;;;;;;4.20;3.80;;;26.10;49.40;;;;;;4925197;29;20469;-83
2023/05/13 10:49:16;;;;;;;4.60;4.20;;;25.70;50.00;;;;;;4928624;29;20455;-85
2023/05/13 10:51:48;;;;;;;5.40;5.00;;;25.30;50.60;;;;;;4926031;29;20506;-83
2023/05/13 10:54:20;;;;;;;5.20;4.80;;;24.80;51.70;;;;;;4928816;29;20469;-83
2023/05/13 10:56:57;;;;;;;5.83;5.33;;;24.40;53.00;;;;;;4930016;29;20510;-84
2023/05/13 10:59:29;;;;;;;6.30;5.80;;;24.20;54.50;;;;;;4926738;29;20536;-84
2023/05/13 11:01:56;;;;;;;6.23;5.73;;;23.40;55.30;;;;;;4924350;29;20479;-85
2023/05/13 11:04:23;;;;;;;5.93;5.33;;;23.00;56.10;;;;;;4941118;29;20451;-85
2023/05/13 11:06:52;;;;;;;6.27;5.67;;;22.80;56.70;;;;;;4921785;29;20458;-86
2023/05/13 11:09:19;;;;;;;6.60;6.00;;;22.80;56.90;;;;;;4927524;29;20506;-83
2023/05/13 11:11:48;;;;;;;6.50;5.90;;;23.00;57.50;;;;;;4919989;29;20481;-83
2023/05/13 11:14:22;;;;;;;6.07;5.57;;;23.10;57.40;;;;;;4927032;29;20451;-84
2023/05/13 11:16:53;;;;;;;6.70;6.20;;;23.10;57.70;;;;;;4918558;29;20534;-84
2023/05/13 11:19:25;;;;;;;7.20;6.50;;;23.10;58.00;;;;;;4929195;29;20521;-84
2023/05/13 11:22:03;;;;;;;7.10;5.30;;;22.90;58.00;;;;;;4926978;29;20479;-83
2023/05/13 11:24:30;;;;;;;4.20;3.80;;;22.90;57.50;;;;;;4926505;29;20446;-83
2023/05/13 11:27:11;;;;;;;4.77;4.00;;;23.10;53.00;;;;;;4937068;29;20518;-83
2023/05/13 11:29:38;;;;;;;2.80;2.60;;;22.70;53.40;;;;;;4929286;29;20472;-83
2023/05/13 11:32:06;;;;;;;3.03;2.63;;;21.90;53.90;;;;;;4918041;29;20600;-83
2023/05/13 11:34:33;;;;;;;2.30;2.10;;;21.00;55.50;;;;;;4922013;29;20454;-83
2023/05/13 11:37:03;;;;;;;3.50;2.70;;;20.40;57.90;;;;;;4921803;29;20506;-83
2023/05/13 11:39:32;;;;;;;2.93;2.00;;;20.10;61.70;;;;;;4924374;29;20530;-83
2023/05/13 11:42:02;;;;;;;2.37;1.50;;;19.40;60.30;;;;;;4929608;29;20990;-83
2023/05/13 11:44:30;;;;;;;2.67;1.90;;;18.90;61.20;;;;;;4928180;29;20494;-83
2023/05/13 11:47:04;;;;;;;3.90;2.77;;;18.80;63.10;;;;;;4922276;29;20460;-83
2023/05/13 11:49:39;;;;;;;3.00;2.33;;;18.80;63.50;;;;;;4921669;29;20513;-82
2023/05/13 11:52:10;;;;;;;2.50;2.30;;;18.90;64.50;;;;;;4927225;29;20488;-82
2023/05/13 11:54:47;;;;;;;2.00;1.90;;;18.80;65.10;;;;;;4920427;29;20473;-83
2023/05/13 11:57:22;;;;;;;2.70;2.50;;;18.90;67.90;;;;;;4936492;29;20461;-83
2023/05/13 12:00:40;;;;;;;3.33;3.07;;;19.10;67.60;;;;;;5125054;23;20536;-81
2023/05/13 12:03:46;;;;;;;2.50;2.30;;;19.30;65.10;;;;;;4958255;28;20470;-83
2023/05/13 12:06:53;;;;;;;2.40;2.20;;;19.30;66.80;;;;;;4950717;28;20450;-82
2023/05/13 12:09:29;;;;;;;2.20;2.10;;;19.50;67.50;;;;;;4943167;29;20505;-83
2023/05/13 12:13:06;;;;;;;3.40;2.97;;;19.50;66.80;;;;;;4936199;29;20561;-83
2023/05/13 12:15:52;;;;;;;2.93;2.60;;;19.50;69.10;;;;;;4939924;29;20831;-83
2023/05/13 12:19:51;;;;;;;3.43;3.13;;;19.50;71.50;;;;;;4923964;29;20493;-82
2023/05/13 12:23:04;;;;;;;3.30;2.73;;;19.50;70.30;;;;;;4952788;29;20474;-83
2023/05/13 12:26:34;;;;;;;2.50;2.30;;;19.60;72.60;;;;;;4936287;29;20464;-83
2023/05/13 12:29:15;;;;;;;3.23;2.60;;;19.80;68.40;;;;;;4933861;29;20496;-83
2023/05/13 12:32:10;;;;;;;2.77;2.57;;;20.20;65.90;;;;;;4949241;29;20537;-83
2023/05/13 12:35:07;;;;;;;2.80;2.47;;;20.20;57.70;;;;;;4939800;29;20520;-85
2023/05/13 12:41:13;;;;;;;2.80;2.60;;;20.00;63.20;;;;;;4935631;29;20464;-84
2023/05/13 12:44:05;;;;;;;3.00;2.73;;;19.60;63.50;;;;;;4940559;29;20512;-83
2023/05/13 12:46:52;;;;;;;2.27;2.07;;;19.70;56.30;;;;;;4954649;29;20457;-84
2023/05/13 12:49:29;;;;;;;1.97;1.87;;;19.90;53.20;;;;;;4937647;29;20462;-83
2023/05/13 12:52:15;;;;;;;2.40;2.13;;;20.00;53.80;;;;;;4901936;29;20577;-83
2023/05/13 12:54:55;;;;;;;2.30;2.03;;;20.20;52.10;;;;;;4905627;29;20542;-84
2023/05/13 12:57:32;;;;;;;1.93;1.83;;;20.20;52.70;;;;;;4913651;29;20505;-83
2023/05/13 13:00:19;;;;;;;2.40;2.20;;;20.50;52.40;;;;;;4904118;29;20461;-84
2023/05/13 13:03:06;;;;;;;2.13;1.93;;;20.70;52.00;;;;;;4910579;29;20622;-84
2023/05/13 13:06:00;;;;;;;2.43;2.23;;;21.10;53.30;;;;;;4887810;29;20568;-83
2023/05/13 13:09:08;;;;;;;2.07;1.90;;;21.60;53.10;;;;;;4897726;29;20471;-83
2023/05/13 13:11:54;;;;;;;2.30;2.17;;;22.20;52.30;;;;;;4905097;29;20489;-83
2023/05/13 13:15:03;;;;;;;2.07;1.97;;;22.40;50.50;;;;;;4901353;29;20463;-84
2023/05/13 13:17:52;;;;;;;2.63;2.37;;;22.50;50.90;;;;;;4893394;29;20609;-84
2023/05/13 13:20:54;;;;;;;2.40;2.20;;;22.70;51.50;;;;;;4898875;29;21262;-83
2023/05/13 13:23:42;;;;;;;2.50;2.10;;;22.40;50.00;;;;;;4903092;29;20490;-84
2023/05/13 13:26:19;;;;;;;2.83;2.63;;;22.70;48.80;;;;;;4893144;29;20510;-84
2023/05/13 13:29:12;;;;;;;2.80;2.00;;;22.50;49.20;;;;;;4895348;29;20478;-85
2023/05/13 13:32:13;;;;;;;3.20;2.83;;;22.40;48.80;;;;;;4927839;29;20532;-83
2023/05/13 13:35:04;;;;;;;2.67;2.23;;;22.50;49.60;;;;;;4928256;29;20469;-84
2023/05/13 13:37:58;;;;;;;2.30;2.10;;;22.70;48.90;;;;;;4934539;29;20514;-83
2023/05/13 13:41:07;;;;;;;2.43;2.23;;;22.90;48.80;;;;;;4920975;29;20536;-85
2023/05/13 13:47:39;;;;;;;2.47;2.27;;;23.80;46.60;;;;;;4920638;29;20457;-83
2023/05/13 13:50:20;;;;;;;2.33;2.13;;;24.40;46.20;;;;;;4930863;29;20625;-83
2023/05/13 13:53:23;;;;;;;2.17;1.97;;;24.30;44.70;;;;;;4925964;29;20525;-83
2023/05/13 13:56:29;;;;;;;2.70;2.50;;;25.10;43.40;;;;;;4928269;29;20833;-84
2023/05/13 13:59:01;;;;;;;2.57;2.37;;;24.50;49.40;;;;;;4934720;29;20517;-82
2023/05/13 14:01:55;;;;;;;3.10;2.73;;;23.80;52.60;;;;;;4943310;29;20541;-83
2023/05/13 14:05:09;;;;;;;;;;;;;;;;;;;;;
2023/05/13 14:07:54;;;;;;;2.63;2.43;;;23.40;54.70;;;;;;4941937;29;20464;-82
2023/05/13 14:10:35;;;;;;;3.60;2.77;;;23.30;53.10;;;;;;4935056;29;20537;-83
2023/05/13 14:13:02;;;;;;;3.97;2.60;;;23.20;57.70;;;;;;4934647;29;20482;-81
2023/05/13 14:15:30;;;;;;;2.63;2.43;;;23.00;58.00;;;;;;4953608;29;21144;-83
2023/05/13 14:17:57;;;;;;;3.70;2.50;;;22.90;57.50;;;;;;4948371;29;20485;-83
2023/05/13 14:20:24;;;;;;;4.23;3.70;;;22.60;56.40;;;;;;4949989;29;20505;-81
2023/05/13 14:22:51;;;;;;;2.43;2.23;;;22.60;57.30;;;;;;4940902;29;20479;-79
2023/05/13 14:25:18;;;;;;;3.47;2.57;;;22.60;56.90;;;;;;4964396;29;20957;-81